Time;durP1;ratioP1;P1;durP2;ratioP2;P2;SDS_P1;SDS_P2;PMS_P1;PMS_P2;Temp;Humidity;BMP_temperature;BMP_pressure;BME280_temperature;BME280_humidity;BME280_pressure;Samples;Min_cycle;Max_cycle;Signal;HPM_P1;HPM_P2
2022/02/22 00:02:20;;;;;;;;;;;;;;;;;;5001950;28;19917;-50
2022/02/22 00:04:45;;;;;;;;;;;;;;;;;;5000084;28;19937;-49
2022/02/22 00:07:10;;;;;;;;;;;;;;;;;;4996746;28;20085;-52
2022/02/22 00:09:35;;;;;;;;;;;;;;;;;;4998895;28;20408;-52
2022/02/22 00:12:00;;;;;;;;;;;;;;;;;;5003726;28;19913;-52
2022/02/22 00:14:25;;;;;;;;;;;;;;;;;;4997781;28;19945;-50
2022/02/22 00:16:55;;;;;;;;;;;;;;;;;;4998123;28;19914;-51
2022/02/22 00:19:20;;;;;;;;;;;;;;;;;;4998731;28;19913;-48
2022/02/22 00:21:45;;;;;;;;;;;;;;;;;;4996917;28;19914;-49
2022/02/22 00:24:10;;;;;;;;;;;;;;;;;;4998015;28;19957;-49
2022/02/22 00:26:35;;;;;;;;;;;;;;;;;;4998882;28;20306;-48
2022/02/22 00:29:01;;;;;;;;;;;;;;;;;;4999408;28;19910;-53
2022/02/22 00:31:26;;;;;;;;;;;;;;;;;;4998634;28;19914;-51
2022/02/22 00:33:51;;;;;;;;;;;;;;;;;;5001735;28;19929;-51
2022/02/22 00:36:16;;;;;;;;;;;;;;;;;;4997465;28;20015;-50
2022/02/22 00:38:42;;;;;;;;;;;;;;;;;;4999801;28;20044;-48
2022/02/22 00:41:08;;;;;;;;;;;;;;;;;;4999263;28;20468;-51
2022/02/22 00:43:33;;;;;;;;;;;;;;;;;;5003629;28;19929;-50
2022/02/22 00:45:58;;;;;;;;;;;;;;;;;;4997851;28;19914;-48
2022/02/22 00:48:23;;;;;;;;;;;;;;;;;;4997616;28;19964;-46
2022/02/22 00:50:48;;;;;;;;;;;;;;;;;;4998559;28;19929;-48
2022/02/22 00:53:13;;;;;;;;;;;;;;;;;;4997241;28;19914;-48
2022/02/22 00:55:38;;;;;;;;;;;;;;;;;;4997615;28;19917;-51
2022/02/22 00:58:04;;;;;;;;;;;;;;;;;;4998898;28;19932;-47
2022/02/22 01:00:29;;;;;;;;;;;;;;;;;;4998924;28;20369;-52
2022/02/22 01:02:54;;;;;;;;;;;;;;;;;;5002376;28;19936;-48
2022/02/22 01:05:19;;;;;;;;;;;;;;;;;;5015453;28;20040;-47
2022/02/22 01:07:44;;;;;;;;;;;;;;;;;;4998130;28;20000;-51
2022/02/22 01:10:09;;;;;;;;;;;;;;;;;;4997813;28;19913;-48
2022/02/22 01:12:35;;;;;;;;;;;;;;;;;;4999598;28;19936;-51
2022/02/22 01:15:00;;;;;;;;;;;;;;;;;;4999719;28;19920;-50
2022/02/22 01:17:25;;;;;;;;;;;;;;;;;;5000961;28;19933;-48
2022/02/22 01:19:50;;;;;;;;;;;;;;;;;;5010742;28;19920;-51
2022/02/22 01:22:15;;;;;;;;;;;;;;;;;;4998759;28;20008;-51
2022/02/22 01:24:41;;;;;;;;;;;;;;;;;;4997777;28;20019;-50
2022/02/22 01:27:06;;;;;;;;;;;;;;;;;;4995835;28;19976;-47
2022/02/22 01:29:31;;;;;;;;;;;;;;;;;;4994177;28;20274;-50
2022/02/22 01:31:56;;;;;;;;;;;;;;;;;;4998716;28;19909;-47
2022/02/22 01:34:21;;;;;;;;;;;;;;;;;;4998807;28;20275;-48
2022/02/22 01:36:46;;;;;;;;;;;;;;;;;;4997144;28;19917;-50
2022/02/22 01:39:12;;;;;;;;;;;;;;;;;;5000410;28;19936;-50
2022/02/22 01:41:37;;;;;;;;;;;;;;;;;;4998203;28;20424;-48
2022/02/22 01:44:02;;;;;;;;;;;;;;;;;;4994569;28;20596;-47
2022/02/22 01:46:27;;;;;;;;;;;;;;;;;;4997268;28;19913;-51
2022/02/22 01:48:52;;;;;;;;;;;;;;;;;;4998730;28;19913;-50
2022/02/22 01:51:18;;;;;;;;;;;;;;;;;;5001653;28;19921;-50
2022/02/22 01:53:43;;;;;;;;;;;;;;;;;;4996929;28;20397;-49
2022/02/22 01:56:08;;;;;;;;;;;;;;;;;;4997994;28;19944;-51
2022/02/22 01:58:33;;;;;;;;;;;;;;;;;;4996038;28;20073;-48
2022/02/22 02:00:59;;;;;;;;;;;;;;;;;;4993756;28;20338;-49
2022/02/22 02:03:25;;;;;;;;;;;;;;;;;;4999051;28;19914;-47
2022/02/22 02:05:50;;;;;;;;;;;;;;;;;;5002098;28;19922;-48
2022/02/22 02:08:15;;;;;;;;;;;;;;;;;;4999974;28;19914;-50
2022/02/22 02:10:40;;;;;;;;;;;;;;;;;;4998736;28;20396;-52
2022/02/22 02:13:05;;;;;;;;;;;;;;;;;;4998684;28;19913;-49
2022/02/22 02:15:31;;;;;;;;;;;;;;;;;;4997044;28;19921;-50
2022/02/22 02:17:56;;;;;;;;;;;;;;;;;;4997793;28;19910;-49
2022/02/22 02:20:21;;;;;;;;;;;;;;;;;;4997847;28;19920;-50
2022/02/22 02:22:46;;;;;;;;;;;;;;;;;;4999060;28;20351;-51
2022/02/22 02:25:11;;;;;;;;;;;;;;;;;;4998093;28;19913;-51
2022/02/22 02:27:36;;;;;;;;;;;;;;;;;;4995889;28;19910;-47
2022/02/22 02:30:02;;;;;;;;;;;;;;;;;;4996849;28;19910;-50
2022/02/22 02:32:27;;;;;;;;;;;;;;;;;;4996457;28;19985;-49
2022/02/22 02:34:52;;;;;;;;;;;;;;;;;;4996131;28;19917;-50
2022/02/22 02:37:17;;;;;;;;;;;;;;;;;;5001578;28;20484;-50
2022/02/22 02:39:42;;;;;;;;;;;;;;;;;;4995809;28;19909;-50
2022/02/22 02:42:07;;;;;;;;;;;;;;;;;;4995872;28;19917;-53
2022/02/22 02:44:33;;;;;;;;;;;;;;;;;;4996904;28;19916;-46
2022/02/22 02:46:58;;;;;;;;;;;;;;;;;;4999146;28;20318;-49
2022/02/22 02:49:23;;;;;;;;;;;;;;;;;;5000851;28;20328;-46
2022/02/22 02:51:48;;;;;;;;;;;;;;;;;;4999151;28;19941;-50
2022/02/22 02:54:13;;;;;;;;;;;;;;;;;;4995020;28;20396;-52
2022/02/22 02:56:39;;;;;;;;;;;;;;;;;;4994282;28;19918;-49
2022/02/22 02:59:04;;;;;;;;;;;;;;;;;;4999951;28;20364;-47
2022/02/22 03:01:29;;;;;;;;;;;;;;;;;;4998219;28;19967;-50
2022/02/22 03:03:54;;;;;;;;;;;;;;;;;;4994713;28;20373;-52
2022/02/22 03:06:19;;;;;;;;;;;;;;;;;;4998281;28;19914;-53
2022/02/22 03:08:44;;;;;;;;;;;;;;;;;;4992417;28;20322;-52
2022/02/22 03:11:10;;;;;;;;;;;;;;;;;;4997646;28;19937;-51
2022/02/22 03:13:35;;;;;;;;;;;;;;;;;;5010148;28;20080;-50
2022/02/22 03:16:00;;;;;;;;;;;;;;;;;;4995904;28;19917;-50
2022/02/22 03:18:25;;;;;;;;;;;;;;;;;;4999076;28;19909;-48
2022/02/22 03:20:50;;;;;;;;;;;;;;;;;;5002844;28;19913;-51
2022/02/22 03:23:19;;;;;;;;;;;;;;;;;;4999047;28;20007;-52
2022/02/22 03:25:44;;;;;;;;;;;;;;;;;;5002229;28;19914;-48
2022/02/22 03:28:09;;;;;;;;;;;;;;;;;;5000899;28;20318;-48
2022/02/22 03:30:34;;;;;;;;;;;;;;;;;;4999678;28;20013;-50
2022/02/22 03:32:59;;;;;;;;;;;;;;;;;;5016384;28;19917;-50
2022/02/22 03:35:24;;;;;;;;;;;;;;;;;;5002020;28;20296;-47
2022/02/22 03:37:49;;;;;;;;;;;;;;;;;;5000500;28;19968;-51
2022/02/22 03:40:15;;;;;;;;;;;;;;;;;;5014142;28;19913;-45
2022/02/22 03:42:40;;;;;;;;;;;;;;;;;;5016924;28;20000;-51
2022/02/22 03:45:05;;;;;;;;;;;;;;;;;;5000485;28;20272;-49
2022/02/22 03:47:30;;;;;;;;;;;;;;;;;;5015587;28;19925;-50
2022/02/22 03:49:55;;;;;;;;;;;;;;;;;;5001232;28;20484;-45
2022/02/22 03:52:21;;;;;;;;;;;;;;;;;;5000424;28;20691;-47
2022/02/22 03:54:46;;;;;;;;;;;;;;;;;;5001475;28;19914;-48
2022/02/22 03:57:11;;;;;;;;;;;;;;;;;;5000372;28;19936;-49
2022/02/22 03:59:36;;;;;;;;;;;;;;;;;;4999937;28;19933;-46
2022/02/22 04:02:01;;;;;;;;;;;;;;;;;;5000316;28;19917;-51
2022/02/22 04:04:26;;;;;;;;;;;;;;;;;;4998820;28;19997;-50
2022/02/22 04:06:51;;;;;;;;;;;;;;;;;;5002607;28;20347;-46
2022/02/22 04:09:17;;;;;;;;;;;;;;;;;;5000702;28;19941;-51
2022/02/22 04:11:42;;;;;;;;;;;;;;;;;;5001277;28;20349;-51
2022/02/22 04:14:07;;;;;;;;;;;;;;;;;;4999556;28;19937;-52
2022/02/22 04:16:32;;;;;;;;;;;;;;;;;;5000093;28;20254;-52
2022/02/22 04:18:57;;;;;;;;;;;;;;;;;;4997173;28;19913;-50
2022/02/22 04:21:23;;;;;;;;;;;;;;;;;;5002403;28;19917;-51
2022/02/22 04:23:48;;;;;;;;;;;;;;;;;;5001251;28;19913;-51
2022/02/22 04:26:13;;;;;;;;;;;;;;;;;;4999563;28;20285;-52
2022/02/22 04:28:38;;;;;;;;;;;;;;;;;;4998560;28;19956;-50
2022/02/22 04:31:03;;;;;;;;;;;;;;;;;;4997865;28;19914;-49
2022/02/22 04:33:28;;;;;;;;;;;;;;;;;;4999448;28;19917;-51
2022/02/22 04:35:53;;;;;;;;;;;;;;;;;;4999563;28;19936;-48
2022/02/22 04:38:19;;;;;;;;;;;;;;;;;;4998060;28;19958;-51
2022/02/22 04:40:44;;;;;;;;;;;;;;;;;;4997191;28;19918;-45
2022/02/22 04:43:09;;;;;;;;;;;;;;;;;;5001489;28;19996;-52
2022/02/22 04:45:34;;;;;;;;;;;;;;;;;;4997877;28;19921;-49
2022/02/22 04:47:59;;;;;;;;;;;;;;;;;;5000104;28;20460;-51
2022/02/22 04:50:24;;;;;;;;;;;;;;;;;;5001207;28;19921;-47
2022/02/22 04:52:50;;;;;;;;;;;;;;;;;;4997266;28;20045;-51
2022/02/22 04:55:15;;;;;;;;;;;;;;;;;;4998163;28;20388;-50
2022/02/22 04:57:40;;;;;;;;;;;;;;;;;;4998938;28;19914;-51
2022/02/22 05:00:05;;;;;;;;;;;;;;;;;;4995104;28;20013;-49
2022/02/22 05:02:30;;;;;;;;;;;;;;;;;;4998645;28;19935;-48
2022/02/22 05:04:55;;;;;;;;;;;;;;;;;;4999812;28;20237;-52
2022/02/22 05:07:21;;;;;;;;;;;;;;;;;;4997212;28;19964;-47
2022/02/22 05:09:46;;;;;;;;;;;;;;;;;;4996988;28;19961;-52
2022/02/22 05:12:11;;;;;;;;;;;;;;;;;;5000286;28;19964;-52
2022/02/22 05:14:36;;;;;;;;;;;;;;;;;;4998472;28;19913;-51
2022/02/22 05:17:01;;;;;;;;;;;;;;;;;;4999431;28;19913;-52
2022/02/22 05:19:26;;;;;;;;;;;;;;;;;;4997106;28;20268;-48
2022/02/22 05:21:52;;;;;;;;;;;;;;;;;;4996349;28;19909;-48
2022/02/22 05:24:17;;;;;;;;;;;;;;;;;;4997518;28;19921;-50
2022/02/22 05:26:42;;;;;;;;;;;;;;;;;;4997766;28;19910;-48
2022/02/22 05:29:07;;;;;;;;;;;;;;;;;;4999150;28;19964;-47
2022/02/22 05:31:32;;;;;;;;;;;;;;;;;;4995149;28;19910;-51
2022/02/22 05:33:57;;;;;;;;;;;;;;;;;;4999272;28;19920;-48
2022/02/22 05:36:23;;;;;;;;;;;;;;;;;;4993948;28;19925;-49
2022/02/22 05:38:48;;;;;;;;;;;;;;;;;;4998485;28;19914;-49
2022/02/22 05:41:17;;;;;;;;;;;;;;;;;;4999326;28;20285;-50
2022/02/22 05:43:42;;;;;;;;;;;;;;;;;;4996740;28;19964;-48
2022/02/22 05:46:07;;;;;;;;;;;;;;;;;;4994654;28;19921;-51
2022/02/22 05:48:32;;;;;;;;;;;;;;;;;;5000873;28;19957;-49
2022/02/22 05:50:57;;;;;;;;;;;;;;;;;;4998969;28;19998;-50
2022/02/22 05:53:23;;;;;;;;;;;;;;;;;;5013441;28;19909;-49
2022/02/22 05:55:48;;;;;;;;;;;;;;;;;;4999167;28;20664;-49
2022/02/22 05:58:14;;;;;;;;;;;;;;;;;;4997853;28;20048;-51
2022/02/22 06:00:40;;;;;;;;;;;;;;;;;;4996766;28;20012;-52
2022/02/22 06:03:05;;;;;;;;;;;;;;;;;;4996789;28;20032;-49
2022/02/22 06:05:30;;;;;;;;;;;;;;;;;;4995829;28;20609;-51
2022/02/22 06:07:55;;;;;;;;;;;;;;;;;;4997484;28;19916;-49
2022/02/22 06:10:21;;;;;;;;;;;;;;;;;;4997247;28;20432;-49
2022/02/22 06:12:48;;;;;;;;;;;;;;;;;;4998972;28;20309;-52
2022/02/22 06:15:13;;;;;;;;;;;;;;;;;;4997330;28;19936;-47
2022/02/22 06:17:38;;;;;;;;;;;;;;;;;;4996444;28;20484;-48
2022/02/22 06:20:03;;;;;;;;;;;;;;;;;;4997715;28;19975;-47
2022/02/22 06:22:28;;;;;;;;;;;;;;;;;;5012831;28;19924;-47
2022/02/22 06:24:53;;;;;;;;;;;;;;;;;;4999094;28;20288;-46
2022/02/22 06:27:18;;;;;;;;;;;;;;;;;;4995556;28;19922;-47
2022/02/22 06:29:44;;;;;;;;;;;;;;;;;;4998257;28;20407;-48
2022/02/22 06:32:10;;;;;;;;;;;;;;;;;;4999111;28;19925;-47
2022/02/22 06:34:35;;;;;;;;;;;;;;;;;;5000619;28;20550;-47
2022/02/22 06:37:00;;;;;;;;;;;;;;;;;;5000214;28;19913;-48
2022/02/22 06:39:25;;;;;;;;;;;;;;;;;;4996177;28;20640;-48
2022/02/22 06:41:50;;;;;;;;;;;;;;;;;;4998154;28;19917;-50
2022/02/22 06:44:16;;;;;;;;;;;;;;;;;;4996604;28;19909;-49
2022/02/22 06:46:41;;;;;;;;;;;;;;;;;;4993178;28;20580;-52
2022/02/22 06:49:06;;;;;;;;;;;;;;;;;;4998393;28;19918;-48
2022/02/22 06:51:31;;;;;;;;;;;;;;;;;;4998833;28;19917;-48
2022/02/22 06:53:56;;;;;;;;;;;;;;;;;;4999231;28;20408;-48
2022/02/22 06:56:22;;;;;;;;;;;;;;;;;;4999998;28;19913;-49
2022/02/22 06:58:47;;;;;;;;;;;;;;;;;;5000074;28;19910;-48
2022/02/22 07:01:12;;;;;;;;;;;;;;;;;;4998143;28;20372;-48
2022/02/22 07:03:37;;;;;;;;;;;;;;;;;;4998398;28;20369;-47
2022/02/22 07:06:03;;;;;;;;;;;;;;;;;;4994661;28;19921;-47
2022/02/22 07:08:28;;;;;;;;;;;;;;;;;;4998240;28;19909;-46
2022/02/22 07:10:53;;;;;;;;;;;;;;;;;;5012609;28;19960;-48
2022/02/22 07:13:18;;;;;;;;;;;;;;;;;;4997786;28;20007;-49
2022/02/22 07:15:43;;;;;;;;;;;;;;;;;;4996078;28;20296;-49
2022/02/22 07:18:09;;;;;;;;;;;;;;;;;;4996414;28;19913;-48
2022/02/22 07:20:34;;;;;;;;;;;;;;;;;;4996904;28;19913;-42
2022/02/22 07:23:00;;;;;;;;;;;;;;;;;;4997220;28;19972;-41
2022/02/22 07:25:25;;;;;;;;;;;;;;;;;;4998601;28;19964;-42
2022/02/22 07:27:50;;;;;;;;;;;;;;;;;;4997535;28;19914;-43
2022/02/22 07:30:15;;;;;;;;;;;;;;;;;;4998162;28;19971;-41
2022/02/22 07:32:40;;;;;;;;;;;;;;;;;;4999050;28;20644;-43
2022/02/22 07:35:05;;;;;;;;;;;;;;;;;;4996191;28;19909;-41
2022/02/22 07:37:31;;;;;;;;;;;;;;;;;;4997558;28;19916;-42
2022/02/22 07:39:56;;;;;;;;;;;;;;;;;;4997065;28;20451;-41
2022/02/22 07:42:21;;;;;;;;;;;;;;;;;;4995946;28;20365;-46
2022/02/22 07:44:47;;;;;;;;;;;;;;;;;;4996917;28;20004;-43
2022/02/22 07:47:12;;;;;;;;;;;;;;;;;;4994825;28;19910;-42
2022/02/22 07:49:37;;;;;;;;;;;;;;;;;;4993030;28;20052;-42
2022/02/22 07:52:02;;;;;;;;;;;;;;;;;;4996308;28;20024;-47
2022/02/22 07:54:27;;;;;;;;;;;;;;;;;;4997617;28;20314;-46
2022/02/22 07:56:52;;;;;;;;;;;;;;;;;;4994251;28;19920;-45
2022/02/22 07:59:18;;;;;;;;;;;;;;;;;;4997766;28;19913;-44
2022/02/22 08:01:43;;;;;;;;;;;;;;;;;;4997051;28;19914;-42
2022/02/22 08:04:08;;;;;;;;;;;;;;;;;;4996841;28;19941;-43
2022/02/22 08:06:33;;;;;;;;;;;;;;;;;;4998431;28;19914;-44
2022/02/22 08:08:58;;;;;;;;;;;;;;;;;;4999706;28;20361;-45
2022/02/22 08:11:25;;;;;;;;;;;;;;;;;;5000660;28;20044;-46
2022/02/22 08:13:51;;;;;;;;;;;;;;;;;;5000613;28;19925;-43
2022/02/22 08:16:16;;;;;;;;;;;;;;;;;;5000875;28;19913;-45
2022/02/22 08:18:42;;;;;;;;;;;;;;;;;;4998592;28;20023;-45
2022/02/22 08:21:07;;;;;;;;;;;;;;;;;;4998382;28;20297;-45
2022/02/22 08:23:32;;;;;;;;;;;;;;;;;;5002227;28;19913;-46
2022/02/22 08:25:58;;;;;;;;;;;;;;;;;;5002076;28;20335;-46
2022/02/22 08:28:23;;;;;;;;;;;;;;;;;;4998749;28;20608;-41
2022/02/22 08:30:48;;;;;;;;;;;;;;;;;;4999917;28;19961;-46
2022/02/22 08:33:13;;;;;;;;;;;;;;;;;;5000283;28;19910;-42
2022/02/22 08:35:38;;;;;;;;;;;;;;;;;;5000898;28;20399;-44
2022/02/22 08:38:03;;;;;;;;;;;;;;;;;;4997695;28;19913;-45
2022/02/22 08:40:30;;;;;;;;;;;;;;;;;;4997675;28;19911;-41
2022/02/22 08:42:55;;;;;;;;;;;;;;;;;;4998774;28;19944;-41
2022/02/22 08:45:20;;;;;;;;;;;;;;;;;;4998429;28;19921;-41
2022/02/22 08:47:45;;;;;;;;;;;;;;;;;;4996882;28;20432;-41
2022/02/22 08:50:10;;;;;;;;;;;;;;;;;;4995810;28;19933;-44
2022/02/22 08:52:35;;;;;;;;;;;;;;;;;;4995055;28;19960;-42
2022/02/22 08:55:01;;;;;;;;;;;;;;;;;;4994739;28;19918;-41
2022/02/22 08:57:27;;;;;;;;;;;;;;;;;;4997738;28;19917;-45
2022/02/22 08:59:52;;;;;;;;;;;;;;;;;;4998136;28;19914;-43
2022/02/22 09:02:17;;;;;;;;;;;;;;;;;;4997330;28;19920;-43
2022/02/22 09:04:42;;;;;;;;;;;;;;;;;;4993341;28;19925;-47
2022/02/22 09:07:08;;;;;;;;;;;;;;;;;;4995391;28;20296;-41
2022/02/22 09:09:33;;;;;;;;;;;;;;;;;;4994819;28;19964;-42
2022/02/22 09:11:59;;;;;;;;;;;;;;;;;;4991773;28;19922;-41
2022/02/22 09:14:24;;;;;;;;;;;;;;;;;;4997338;28;19913;-43
2022/02/22 09:16:49;;;;;;;;;;;;;;;;;;4997436;28;19934;-44
2022/02/22 09:19:14;;;;;;;;;;;;;;;;;;4994907;28;19925;-44
2022/02/22 09:21:39;;;;;;;;;;;;;;;;;;4995089;28;19921;-45
2022/02/22 09:24:05;;;;;;;;;;;;;;;;;;4996513;28;19918;-43
2022/02/22 09:26:30;;;;;;;;;;;;;;;;;;4993252;28;20310;-43
2022/02/22 09:28:56;;;;;;;;;;;;;;;;;;4998842;28;19932;-43
2022/02/22 09:31:21;;;;;;;;;;;;;;;;;;4995715;28;19913;-46
2022/02/22 09:33:47;;;;;;;;;;;;;;;;;;4997734;28;19921;-45
2022/02/22 09:36:12;;;;;;;;;;;;;;;;;;4996923;28;19961;-46
2022/02/22 09:38:37;;;;;;;;;;;;;;;;;;4995203;28;19918;-46
2022/02/22 09:41:03;;;;;;;;;;;;;;;;;;4996128;28;20407;-41
2022/02/22 09:43:28;;;;;;;;;;;;;;;;;;4996808;28;19917;-44
2022/02/22 09:45:53;;;;;;;;;;;;;;;;;;4994840;28;19914;-43
2022/02/22 09:48:18;;;;;;;;;;;;;;;;;;4994406;28;19913;-48
2022/02/22 09:50:43;;;;;;;;;;;;;;;;;;4996287;28;19936;-45
2022/02/22 09:53:09;;;;;;;;;;;;;;;;;;4996431;28;19917;-48
2022/02/22 09:55:34;;;;;;;;;;;;;;;;;;4997969;28;19917;-45
2022/02/22 09:57:59;;;;;;;;;;;;;;;;;;5008236;28;19909;-45
2022/02/22 10:00:24;;;;;;;;;;;;;;;;;;4994609;28;19939;-42
2022/02/22 10:02:49;;;;;;;;;;;;;;;;;;4997283;28;19918;-43
2022/02/22 10:05:15;;;;;;;;;;;;;;;;;;4994685;28;19921;-43
2022/02/22 10:07:40;;;;;;;;;;;;;;;;;;4993040;28;19917;-41
2022/02/22 10:10:06;;;;;;;;;;;;;;;;;;4995431;28;19914;-42
2022/02/22 10:12:32;;;;;;;;;;;;;;;;;;4994943;28;20004;-41
2022/02/22 10:14:57;;;;;;;;;;;;;;;;;;4994702;28;20008;-42
2022/02/22 10:17:22;;;;;;;;;;;;;;;;;;4997202;28;19923;-43
2022/02/22 10:19:48;;;;;;;;;;;;;;;;;;4998815;28;19957;-41
2022/02/22 10:22:13;;;;;;;;;;;;;;;;;;4995837;28;20369;-42
2022/02/22 10:24:38;;;;;;;;;;;;;;;;;;4995700;28;20385;-41
2022/02/22 10:27:03;;;;;;;;;;;;;;;;;;4998305;28;19913;-42
2022/02/22 10:29:28;;;;;;;;;;;;;;;;;;4997049;28;19951;-45
2022/02/22 10:31:53;;;;;;;;;;;;;;;;;;4993991;28;20624;-41
2022/02/22 10:34:18;;;;;;;;;;;;;;;;;;4993070;28;19914;-44
2022/02/22 10:36:44;;;;;;;;;;;;;;;;;;4994004;28;19924;-43
2022/02/22 10:39:09;;;;;;;;;;;;;;;;;;4994428;28;20341;-42
2022/02/22 10:41:34;;;;;;;;;;;;;;;;;;4993566;28;19910;-42
2022/02/22 10:43:59;;;;;;;;;;;;;;;;;;4994400;28;19933;-43
2022/02/22 10:46:25;;;;;;;;;;;;;;;;;;4994603;28;19963;-41
2022/02/22 10:48:50;;;;;;;;;;;;;;;;;;4993893;28;19929;-44
2022/02/22 10:51:15;;;;;;;;;;;;;;;;;;4992498;28;19999;-43
2022/02/22 10:53:41;;;;;;;;;;;;;;;;;;4996201;28;20703;-46
2022/02/22 10:56:06;;;;;;;;;;;;;;;;;;4992268;28;19987;-41
2022/02/22 10:58:31;;;;;;;;;;;;;;;;;;4994815;28;19914;-44
2022/02/22 11:00:56;;;;;;;;;;;;;;;;;;4993241;28;20023;-45
2022/02/22 11:03:21;;;;;;;;;;;;;;;;;;4994282;28;20013;-45
2022/02/22 11:05:47;;;;;;;;;;;;;;;;;;4993958;28;20288;-42
2022/02/22 11:08:12;;;;;;;;;;;;;;;;;;4994260;28;20448;-45
2022/02/22 11:10:37;;;;;;;;;;;;;;;;;;4995409;28;20417;-44
2022/02/22 11:13:02;;;;;;;;;;;;;;;;;;4996851;28;20032;-45
2022/02/22 11:15:27;;;;;;;;;;;;;;;;;;4993538;28;19968;-44
2022/02/22 11:17:54;;;;;;;;;;;;;;;;;;4994375;28;19933;-47
2022/02/22 11:20:20;;;;;;;;;;;;;;;;;;4993209;28;19918;-46
2022/02/22 11:22:45;;;;;;;;;;;;;;;;;;4995234;28;19920;-49
2022/02/22 11:25:10;;;;;;;;;;;;;;;;;;4991037;28;19918;-42
2022/02/22 11:27:35;;;;;;;;;;;;;;;;;;4994212;28;20388;-45
2022/02/22 11:30:04;;;;;;;;;;;;;;;;;;4996348;28;19964;-42
2022/02/22 11:32:29;;;;;;;;;;;;;;;;;;4992508;28;19914;-44
2022/02/22 11:34:54;;;;;;;;;;;;;;;;;;4993406;28;20395;-45
2022/02/22 11:37:19;;;;;;;;;;;;;;;;;;4994820;28;19918;-44
2022/02/22 11:39:46;;;;;;;;;;;;;;;;;;4995775;28;19917;-43
2022/02/22 11:42:11;;;;;;;;;;;;;;;;;;4997194;28;19929;-45
2022/02/22 11:44:36;;;;;;;;;;;;;;;;;;4995575;28;19921;-46
2022/02/22 11:47:01;;;;;;;;;;;;;;;;;;4997009;28;19943;-43
2022/02/22 11:49:26;;;;;;;;;;;;;;;;;;4996684;28;20357;-42
2022/02/22 11:51:52;;;;;;;;;;;;;;;;;;4997169;28;19921;-45
2022/02/22 11:54:17;;;;;;;;;;;;;;;;;;4996952;28;19932;-42
2022/02/22 11:56:43;;;;;;;;;;;;;;;;;;4996751;28;19914;-43
2022/02/22 11:59:08;;;;;;;;;;;;;;;;;;4999654;28;20156;-44
2022/02/22 12:01:33;;;;;;;;;;;;;;;;;;4999364;28;20374;-42
2022/02/22 12:04:01;;;;;;;;;;;;;;;;;;5000704;28;19929;-44
2022/02/22 12:06:26;;;;;;;;;;;;;;;;;;4994318;28;19909;-43
2022/02/22 12:08:51;;;;;;;;;;;;;;;;;;4995694;28;19913;-43
2022/02/22 12:11:16;;;;;;;;;;;;;;;;;;5000750;28;19928;-41
2022/02/22 12:13:41;;;;;;;;;;;;;;;;;;5013613;28;20580;-42
2022/02/22 12:16:07;;;;;;;;;;;;;;;;;;4999113;28;19926;-42
2022/02/22 12:18:32;;;;;;;;;;;;;;;;;;5001462;28;19909;-42
2022/02/22 12:20:57;;;;;;;;;;;;;;;;;;4998320;28;19917;-42
2022/02/22 12:23:22;;;;;;;;;;;;;;;;;;4996849;28;20412;-44
2022/02/22 12:25:47;;;;;;;;;;;;;;;;;;4999386;28;19971;-47
2022/02/22 12:28:12;;;;;;;;;;;;;;;;;;4997077;28;19915;-42
2022/02/22 12:30:38;;;;;;;;;;;;;;;;;;4997683;28;19917;-46
2022/02/22 12:33:03;;;;;;;;;;;;;;;;;;5004229;28;19932;-49
2022/02/22 12:35:28;;;;;;;;;;;;;;;;;;4999695;28;20362;-44
2022/02/22 12:37:53;;;;;;;;;;;;;;;;;;4998944;28;19961;-50
2022/02/22 12:40:21;;;;;;;;;;;;;;;;;;4997771;28;20353;-47
2022/02/22 12:42:46;;;;;;;;;;;;;;;;;;4995576;28;20013;-44
2022/02/22 12:45:11;;;;;;;;;;;;;;;;;;4995626;28;20004;-45
2022/02/22 12:47:36;;;;;;;;;;;;;;;;;;4996592;28;19909;-47
2022/02/22 12:50:02;;;;;;;;;;;;;;;;;;4996111;28;19925;-51
2022/02/22 12:52:27;;;;;;;;;;;;;;;;;;4997900;28;19988;-50
2022/02/22 12:54:52;;;;;;;;;;;;;;;;;;5013328;28;20008;-47
2022/02/22 12:57:17;;;;;;;;;;;;;;;;;;4998732;28;19917;-46
2022/02/22 12:59:42;;;;;;;;;;;;;;;;;;4996841;28;20450;-48
2022/02/22 13:02:07;;;;;;;;;;;;;;;;;;4996302;28;19956;-49
2022/02/22 13:04:33;;;;;;;;;;;;;;;;;;4996282;28;19910;-45
2022/02/22 13:06:58;;;;;;;;;;;;;;;;;;5000764;28;20004;-47
2022/02/22 13:09:23;;;;;;;;;;;;;;;;;;4997275;28;19910;-52
2022/02/22 13:11:51;;;;;;;;;;;;;;;;;;4998924;28;19952;-45
2022/02/22 13:14:17;;;;;;;;;;;;;;;;;;4999999;28;19914;-49
2022/02/22 13:16:42;;;;;;;;;;;;;;;;;;4997710;28;19928;-50
2022/02/22 13:19:07;;;;;;;;;;;;;;;;;;4996973;28;20073;-49
2022/02/22 13:21:32;;;;;;;;;;;;;;;;;;4996725;28;20318;-52
2022/02/22 13:23:58;;;;;;;;;;;;;;;;;;4997777;28;19910;-48
2022/02/22 13:26:24;;;;;;;;;;;;;;;;;;4997535;28;19910;-48
2022/02/22 13:28:49;;;;;;;;;;;;;;;;;;5011868;28;20544;-41
2022/02/22 13:31:14;;;;;;;;;;;;;;;;;;4995125;28;20499;-45
2022/02/22 13:33:39;;;;;;;;;;;;;;;;;;4997315;28;20421;-46
2022/02/22 13:36:07;;;;;;;;;;;;;;;;;;4996893;28;19913;-46
2022/02/22 13:38:32;;;;;;;;;;;;;;;;;;4998445;28;19914;-46
2022/02/22 13:40:58;;;;;;;;;;;;;;;;;;4996061;28;20016;-45
2022/02/22 13:43:23;;;;;;;;;;;;;;;;;;4995995;28;19918;-47
2022/02/22 13:45:49;;;;;;;;;;;;;;;;;;4999093;28;20470;-45
2022/02/22 13:48:14;;;;;;;;;;;;;;;;;;4998185;28;19910;-43
2022/02/22 13:50:39;;;;;;;;;;;;;;;;;;4999943;28;19975;-45
2022/02/22 13:53:04;;;;;;;;;;;;;;;;;;4996757;28;20483;-45
2022/02/22 13:55:29;;;;;;;;;;;;;;;;;;4995748;28;19910;-45
2022/02/22 13:57:54;;;;;;;;;;;;;;;;;;4995889;28;19917;-47
2022/02/22 14:00:20;;;;;;;;;;;;;;;;;;4996387;28;20818;-46
2022/02/22 14:02:47;;;;;;;;;;;;;;;;;;4994269;28;21269;-43
2022/02/22 14:05:12;;;;;;;;;;;;;;;;;;4994194;28;20008;-47
2022/02/22 14:07:37;;;;;;;;;;;;;;;;;;4995528;28;19917;-46
2022/02/22 14:10:02;;;;;;;;;;;;;;;;;;4993078;28;20365;-43
2022/02/22 14:12:28;;;;;;;;;;;;;;;;;;4993882;28;19914;-44
2022/02/22 14:14:53;;;;;;;;;;;;;;;;;;4994372;28;20005;-46
2022/02/22 14:17:18;;;;;;;;;;;;;;;;;;4992926;28;20373;-46
2022/02/22 14:19:43;;;;;;;;;;;;;;;;;;4992882;28;19953;-47
2022/02/22 14:22:08;;;;;;;;;;;;;;;;;;4995405;28;19917;-45
2022/02/22 14:24:34;;;;;;;;;;;;;;;;;;4990277;28;20054;-46
2022/02/22 14:26:59;;;;;;;;;;;;;;;;;;4995036;28;20626;-47
2022/02/22 14:29:24;;;;;;;;;;;;;;;;;;4994936;28;19914;-45
2022/02/22 14:31:49;;;;;;;;;;;;;;;;;;4992916;28;20499;-46
2022/02/22 14:34:14;;;;;;;;;;;;;;;;;;4992019;28;19914;-43
2022/02/22 14:36:39;;;;;;;;;;;;;;;;;;4994256;28;20400;-43
2022/02/22 14:39:05;;;;;;;;;;;;;;;;;;4993427;28;20639;-47
2022/02/22 14:41:30;;;;;;;;;;;;;;;;;;4994759;28;20408;-44
2022/02/22 14:43:55;;;;;;;;;;;;;;;;;;4993764;28;19913;-47
2022/02/22 14:46:20;;;;;;;;;;;;;;;;;;4995139;28;19917;-47
2022/02/22 14:48:45;;;;;;;;;;;;;;;;;;4994173;28;19914;-43
2022/02/22 14:51:10;;;;;;;;;;;;;;;;;;4993218;28;19930;-47
2022/02/22 14:53:36;;;;;;;;;;;;;;;;;;4995264;28;19929;-48
2022/02/22 14:56:02;;;;;;;;;;;;;;;;;;4994404;28;20472;-46
2022/02/22 14:58:27;;;;;;;;;;;;;;;;;;4992914;28;19913;-47
2022/02/22 15:00:53;;;;;;;;;;;;;;;;;;4994800;28;19963;-48
2022/02/22 15:03:18;;;;;;;;;;;;;;;;;;4994316;28;19996;-43
2022/02/22 15:05:43;;;;;;;;;;;;;;;;;;4991478;28;19924;-49
2022/02/22 15:08:10;;;;;;;;;;;;;;;;;;4994326;28;19987;-42
2022/02/22 15:10:38;;;;;;;;;;;;;;;;;;4996163;28;20013;-47
2022/02/22 15:13:03;;;;;;;;;;;;;;;;;;4991831;28;19921;-45
2022/02/22 15:15:28;;;;;;;;;;;;;;;;;;4998408;28;20446;-46
2022/02/22 15:17:54;;;;;;;;;;;;;;;;;;4999094;28;19913;-49
2022/02/22 15:20:20;;;;;;;;;;;;;;;;;;4994932;28;19917;-46
2022/02/22 15:22:45;;;;;;;;;;;;;;;;;;5013239;28;20421;-44
2022/02/22 15:25:10;;;;;;;;;;;;;;;;;;4996712;28;19952;-45
2022/02/22 15:27:36;;;;;;;;;;;;;;;;;;4997707;28;19913;-44
2022/02/22 15:30:02;;;;;;;;;;;;;;;;;;4995024;28;20377;-46
2022/02/22 15:32:28;;;;;;;;;;;;;;;;;;4994903;28;19914;-47
2022/02/22 15:34:53;;;;;;;;;;;;;;;;;;4998295;28;20400;-44
2022/02/22 15:37:18;;;;;;;;;;;;;;;;;;4997456;28;19932;-43
2022/02/22 15:39:43;;;;;;;;;;;;;;;;;;4993013;28;19914;-47
2022/02/22 15:42:08;;;;;;;;;;;;;;;;;;4999108;28;20557;-48
2022/02/22 15:44:33;;;;;;;;;;;;;;;;;;4996059;28;20365;-46
2022/02/22 15:46:59;;;;;;;;;;;;;;;;;;4997420;28;19909;-50
2022/02/22 15:49:24;;;;;;;;;;;;;;;;;;4997052;28;20476;-45
2022/02/22 15:51:49;;;;;;;;;;;;;;;;;;4996945;28;20616;-47
2022/02/22 15:54:14;;;;;;;;;;;;;;;;;;5001067;28;19917;-45
2022/02/22 15:56:39;;;;;;;;;;;;;;;;;;5002099;28;19936;-48
2022/02/22 15:59:04;;;;;;;;;;;;;;;;;;4997813;28;20423;-43
2022/02/22 16:01:32;;;;;;;;;;;;;;;;;;4998206;28;19934;-49
2022/02/22 16:03:57;;;;;;;;;;;;;;;;;;4998005;28;20365;-48
2022/02/22 16:06:22;;;;;;;;;;;;;;;;;;5000579;28;19914;-44
2022/02/22 16:08:47;;;;;;;;;;;;;;;;;;4995652;28;20547;-44
2022/02/22 16:11:14;;;;;;;;;;;;;;;;;;5001732;28;19913;-45
2022/02/22 16:13:39;;;;;;;;;;;;;;;;;;5002296;28;19918;-48
2022/02/22 16:16:05;;;;;;;;;;;;;;;;;;5001330;28;19921;-44
2022/02/22 16:18:30;;;;;;;;;;;;;;;;;;4998893;28;20004;-47
2022/02/22 16:20:56;;;;;;;;;;;;;;;;;;4997068;28;19989;-44
2022/02/22 16:23:21;;;;;;;;;;;;;;;;;;4999654;28;20033;-42
2022/02/22 16:25:46;;;;;;;;;;;;;;;;;;4999347;28;19929;-43
2022/02/22 16:28:11;;;;;;;;;;;;;;;;;;4999656;28;19967;-44
2022/02/22 16:30:37;;;;;;;;;;;;;;;;;;4998207;28;19914;-44
2022/02/22 16:33:02;;;;;;;;;;;;;;;;;;5000482;28;19910;-43